createdAt,value
2022-11-04T00:00:16.365Z,14.63
2022-11-04T00:02:43.514Z,16.10
2022-11-04T00:05:17.327Z,18.05
2022-11-04T00:08:03.088Z,15.10
2022-11-04T00:10:48.921Z,16.52
2022-11-04T00:13:21.982Z,13.70
2022-11-04T00:16:07.619Z,14.98
2022-11-04T00:18:36.287Z,15.40
2022-11-04T00:21:21.989Z,14.52
2022-11-04T00:24:07.944Z,11.13
2022-11-04T00:26:54.042Z,11.80
2022-11-04T00:29:21.105Z,8.77
2022-11-04T00:32:06.780Z,8.63
2022-11-04T00:34:34.109Z,9.88
2022-11-04T00:37:03.070Z,6.53
2022-11-04T00:39:30.480Z,16.75
2022-11-04T00:41:57.431Z,11.95
2022-11-04T00:44:24.427Z,12.70
2022-11-04T00:46:51.392Z,10.32
2022-11-04T00:49:18.435Z,12.80
2022-11-04T00:51:45.503Z,16.45
2022-11-04T00:54:12.559Z,12.02
2022-11-04T00:56:40.181Z,12.70
2022-11-04T00:59:10.306Z,9.18
2022-11-04T01:01:41.745Z,14.48
2022-11-04T01:04:09.582Z,10.80
2022-11-04T01:06:36.652Z,11.85
2022-11-04T01:09:08.219Z,11.93
2022-11-04T01:11:35.327Z,12.95
2022-11-04T01:14:02.506Z,10.57
2022-11-04T01:16:29.870Z,11.40
2022-11-04T01:18:57.077Z,12.70
2022-11-04T01:21:24.066Z,10.60
2022-11-04T01:23:51.197Z,12.20
2022-11-04T01:26:21.461Z,16.95
2022-11-04T01:28:48.822Z,17.45
2022-11-04T01:31:23.883Z,16.08
2022-11-04T01:33:52.842Z,15.65
2022-11-04T01:36:20.545Z,15.80
2022-11-04T01:38:48.251Z,15.95
2022-11-04T01:41:31.000Z,7.07
2022-11-04T01:44:00.434Z,5.13
2022-11-04T01:46:33.221Z,7.38
2022-11-04T01:49:26.567Z,4.60
2022-11-04T01:52:09.186Z,5.25
2022-11-04T01:54:38.945Z,4.88
2022-11-04T01:57:14.768Z,8.85
2022-11-04T01:59:42.258Z,6.85
2022-11-04T02:02:10.647Z,7.78
2022-11-04T02:04:39.284Z,6.13
2022-11-04T02:07:09.754Z,6.03
2022-11-04T02:09:38.469Z,9.45
2022-11-04T02:12:24.323Z,8.00
2022-11-04T02:14:52.338Z,8.27
2022-11-04T02:17:19.290Z,6.18
2022-11-04T02:20:30.926Z,8.77
2022-11-04T02:23:23.145Z,5.93
2022-11-04T02:26:02.096Z,7.25
2022-11-04T02:28:29.046Z,8.70
2022-11-04T02:31:18.737Z,10.18
2022-11-04T02:34:02.198Z,6.35
2022-11-04T02:36:48.206Z,6.65
2022-11-04T02:39:30.011Z,6.72
2022-11-04T02:42:09.213Z,7.13
2022-11-04T02:44:44.565Z,7.75
2022-11-04T02:47:21.909Z,12.13
2022-11-04T02:49:58.134Z,7.57
2022-11-04T02:52:33.035Z,6.28
2022-11-04T02:55:17.842Z,7.60
2022-11-04T02:57:47.544Z,8.85
2022-11-04T03:00:15.783Z,11.73
2022-11-04T03:02:46.724Z,8.43
2022-11-04T03:05:18.873Z,10.35
2022-11-04T03:07:48.480Z,5.68
2022-11-04T03:10:37.339Z,5.57
2022-11-04T03:13:17.254Z,6.82
2022-11-04T03:16:09.278Z,7.75
2022-11-04T03:18:55.102Z,8.30
2022-11-04T03:21:22.775Z,7.75
2022-11-04T03:23:49.849Z,9.85
2022-11-04T03:26:53.444Z,6.72
2022-11-04T03:29:31.604Z,7.45
2022-11-04T03:32:24.698Z,6.35
2022-11-04T03:34:52.269Z,7.82
2022-11-04T03:37:19.385Z,8.43
2022-11-04T03:39:47.513Z,8.95
2022-11-04T03:42:21.351Z,10.02
2022-11-04T03:44:53.901Z,8.10
2022-11-04T03:47:26.301Z,5.53
2022-11-04T03:50:02.664Z,6.75
2022-11-04T03:52:29.632Z,6.63
2022-11-04T03:54:56.744Z,13.15
2022-11-04T03:57:39.981Z,6.25
2022-11-04T04:00:12.786Z,8.13
2022-11-04T04:03:18.282Z,8.00
2022-11-04T04:06:15.435Z,8.70
2022-11-04T04:08:45.113Z,6.95
2022-11-04T04:11:37.382Z,7.50
2022-11-04T04:14:39.255Z,9.50
2022-11-04T04:19:37.759Z,12.68
2022-11-04T04:22:37.241Z,11.35
2022-11-04T04:25:26.129Z,11.55
2022-11-04T04:27:55.651Z,12.48
2022-11-04T04:30:22.935Z,12.60
2022-11-04T04:33:06.653Z,17.90
2022-11-04T04:35:44.471Z,14.55
2022-11-04T04:38:38.677Z,17.90
2022-11-04T04:44:14.154Z,21.30
2022-11-04T04:46:43.659Z,19.80
2022-11-04T04:49:10.884Z,24.70
2022-11-04T04:51:47.438Z,19.15
2022-11-04T04:54:14.741Z,16.42
2022-11-04T04:56:41.811Z,26.88
2022-11-04T04:59:08.898Z,18.80
2022-11-04T05:01:36.034Z,18.17
2022-11-04T05:04:03.050Z,18.90
2022-11-04T05:06:30.094Z,22.80
2022-11-04T05:08:57.094Z,23.10
2022-11-04T05:11:26.076Z,23.00
2022-11-04T05:13:54.269Z,18.25
2022-11-04T05:16:21.511Z,23.17
2022-11-04T05:18:51.945Z,23.75
2022-11-04T05:21:19.257Z,22.65
2022-11-04T05:23:46.176Z,23.92
2022-11-04T05:26:14.653Z,25.33
2022-11-04T05:28:41.575Z,29.63
2022-11-04T05:31:08.676Z,22.77
2022-11-04T05:33:35.656Z,23.73
2022-11-04T05:36:10.811Z,25.60
2022-11-04T05:38:38.324Z,27.40
2022-11-04T05:41:06.569Z,23.60
2022-11-04T05:43:34.292Z,22.30
2022-11-04T05:46:01.631Z,28.52
2022-11-04T05:48:29.126Z,23.00
2022-11-04T05:50:56.467Z,25.58
2022-11-04T05:53:23.423Z,26.13
2022-11-04T05:55:51.237Z,26.38
2022-11-04T05:58:18.201Z,23.30
2022-11-04T06:00:45.114Z,22.77
2022-11-04T06:03:15.313Z,27.05
2022-11-04T06:05:43.379Z,33.15
2022-11-04T06:08:10.679Z,32.47
2022-11-04T06:10:38.000Z,28.55
2022-11-04T06:13:04.978Z,30.85
2022-11-04T06:15:32.047Z,33.70
2022-11-04T06:17:59.133Z,27.95
2022-11-04T06:20:26.034Z,27.90
2022-11-04T06:22:52.936Z,27.73
2022-11-04T06:25:19.867Z,31.00
2022-11-04T06:27:47.431Z,30.67
2022-11-04T06:30:14.420Z,34.72
2022-11-04T06:32:41.526Z,34.33
2022-11-04T06:35:09.155Z,36.95
2022-11-04T06:37:37.818Z,32.42
2022-11-04T06:40:05.250Z,32.28
2022-11-04T06:42:32.168Z,33.92
2022-11-04T06:44:59.082Z,37.00
2022-11-04T06:47:26.060Z,33.58
2022-11-04T06:49:53.035Z,43.83
2022-11-04T06:52:19.967Z,38.55
2022-11-04T06:54:47.992Z,38.70
2022-11-04T06:57:15.056Z,45.88
2022-11-04T06:59:41.978Z,47.10
2022-11-04T07:02:11.453Z,54.25
2022-11-04T07:04:38.510Z,58.83
2022-11-04T07:07:05.479Z,56.33
2022-11-04T07:09:32.409Z,60.55
2022-11-04T07:11:59.853Z,52.92
2022-11-04T07:14:27.437Z,33.95
2022-11-04T07:16:54.447Z,25.90
2022-11-04T07:19:21.406Z,13.65
2022-11-04T07:21:48.319Z,8.77
2022-11-04T07:24:15.340Z,11.65
2022-11-04T07:26:42.609Z,9.40
2022-11-04T07:29:11.292Z,7.20
2022-11-04T07:31:39.255Z,4.53
2022-11-04T07:34:06.378Z,4.68
2022-11-04T07:36:33.444Z,3.17
2022-11-04T07:39:02.297Z,3.88
2022-11-04T07:41:29.610Z,4.38
2022-11-04T07:43:58.819Z,3.00
2022-11-04T07:46:25.854Z,3.33
2022-11-04T07:48:53.046Z,3.65
2022-11-04T07:51:21.401Z,4.05
2022-11-04T07:53:48.364Z,2.55
2022-11-04T07:56:15.838Z,2.28
2022-11-04T07:58:43.161Z,3.13
2022-11-04T08:01:13.413Z,3.28
2022-11-04T08:03:40.790Z,2.80
2022-11-04T08:06:09.651Z,7.07
2022-11-04T08:08:37.452Z,5.47
2022-11-04T08:11:18.469Z,2.65
2022-11-04T08:13:47.012Z,2.85
2022-11-04T08:16:16.621Z,4.90
2022-11-04T08:18:44.054Z,5.15
2022-11-04T08:21:11.960Z,4.10
2022-11-04T08:23:39.132Z,3.20
2022-11-04T08:26:14.658Z,6.03
2022-11-04T08:28:41.783Z,5.55
2022-11-04T08:31:13.905Z,0.95
2022-11-04T08:33:41.771Z,1.95
2022-11-04T08:36:12.342Z,2.65
2022-11-04T08:38:39.861Z,2.25
2022-11-04T08:41:08.848Z,2.35
2022-11-04T08:43:36.295Z,0.93
2022-11-04T08:46:07.166Z,0.57
2022-11-04T08:48:35.342Z,1.30
2022-11-04T08:51:03.533Z,2.03
2022-11-04T08:53:30.432Z,1.45
2022-11-04T08:55:57.606Z,1.48
2022-11-04T08:58:24.928Z,2.05
2022-11-04T09:00:52.487Z,1.88
2022-11-04T09:03:19.541Z,1.45
2022-11-04T09:05:48.159Z,2.50
2022-11-04T09:08:17.006Z,0.98
2022-11-04T09:10:45.447Z,1.65
2022-11-04T09:13:13.616Z,2.78
2022-11-04T09:15:40.658Z,2.97
2022-11-04T09:18:08.109Z,0.90
2022-11-04T09:20:38.569Z,1.10
2022-11-04T09:23:06.719Z,1.13
2022-11-04T09:25:34.358Z,1.13
2022-11-04T09:28:01.464Z,1.55
2022-11-04T09:30:28.676Z,2.47
2022-11-04T09:32:55.637Z,2.25
2022-11-04T09:35:22.725Z,1.67
2022-11-04T09:37:50.717Z,2.10
2022-11-04T09:40:21.645Z,2.03
2022-11-04T09:42:54.727Z,1.10
2022-11-04T09:45:27.375Z,3.50
2022-11-04T09:48:00.798Z,0.80
2022-11-04T09:50:33.124Z,1.52
2022-11-04T09:53:22.724Z,0.57
2022-11-04T09:55:49.609Z,2.30
2022-11-04T09:58:16.829Z,2.95
2022-11-04T10:00:54.354Z,1.13
2022-11-04T10:03:39.900Z,3.15
2022-11-04T10:06:15.778Z,0.65
2022-11-04T10:09:07.136Z,2.33
2022-11-04T10:11:58.010Z,2.42
2022-11-04T10:14:35.584Z,0.90
2022-11-04T10:17:05.965Z,2.88
2022-11-04T10:20:01.231Z,1.15
2022-11-04T10:22:50.552Z,3.15
2022-11-04T10:25:23.787Z,2.35
2022-11-04T10:27:52.389Z,6.05
2022-11-04T10:30:22.942Z,2.67
2022-11-04T10:32:58.629Z,2.28
2022-11-04T10:35:41.018Z,1.67
2022-11-04T10:38:20.025Z,1.13
2022-11-04T10:40:50.519Z,7.63
2022-11-04T10:43:46.764Z,1.40
2022-11-04T10:46:22.444Z,1.60
2022-11-04T10:48:55.013Z,0.65
2022-11-04T10:51:23.876Z,1.27
2022-11-04T10:53:55.527Z,1.70
2022-11-04T10:56:30.616Z,2.13
2022-11-04T10:59:07.778Z,1.10
2022-11-04T11:01:35.731Z,1.23
2022-11-04T11:04:07.327Z,1.55
2022-11-04T11:06:35.816Z,1.92
2022-11-04T11:09:34.326Z,2.13
2022-11-04T11:12:48.942Z,1.10
2022-11-04T11:15:25.109Z,1.55
2022-11-04T11:17:59.772Z,0.60
2022-11-04T11:20:27.409Z,2.38
2022-11-04T11:22:55.877Z,2.78
2022-11-04T11:25:28.405Z,1.77
2022-11-04T11:28:06.131Z,2.17
2022-11-04T11:30:44.613Z,1.30
2022-11-04T11:33:21.403Z,1.80
2022-11-04T11:35:58.383Z,0.60
2022-11-04T11:38:28.706Z,1.75
2022-11-04T11:41:31.654Z,0.73
2022-11-04T11:44:17.607Z,1.23
2022-11-04T11:46:52.595Z,2.40
2022-11-04T11:49:25.855Z,1.25
2022-11-04T11:51:53.447Z,0.95
2022-11-04T11:54:35.166Z,0.60
2022-11-04T11:57:18.570Z,0.70
2022-11-04T12:06:33.302Z,0.85
2022-11-04T12:09:25.005Z,0.60
2022-11-04T12:12:15.117Z,0.68
2022-11-04T12:15:19.462Z,0.90
2022-11-04T12:18:05.308Z,0.80
2022-11-04T12:20:52.077Z,0.60
2022-11-04T12:23:38.744Z,0.50
2022-11-04T12:26:14.705Z,0.50
2022-11-04T12:29:00.076Z,0.63
2022-11-04T12:31:30.085Z,1.30
2022-11-04T12:34:31.245Z,0.40
2022-11-04T12:37:16.898Z,0.50
2022-11-04T12:39:43.812Z,0.43
2022-11-04T12:42:44.896Z,0.40
2022-11-04T12:45:38.030Z,0.65
2022-11-04T12:48:11.393Z,0.50
2022-11-04T12:51:01.555Z,0.50
2022-11-04T12:53:52.588Z,0.70
2022-11-04T12:56:22.140Z,0.40
2022-11-04T12:59:08.806Z,0.82
2022-11-04T13:01:53.430Z,1.20
2022-11-04T13:04:40.372Z,1.55
2022-11-04T13:07:33.113Z,0.43
2022-11-04T13:10:06.502Z,0.40
2022-11-04T13:12:39.522Z,0.40
2022-11-04T13:17:41.539Z,0.55
2022-11-04T13:20:14.193Z,0.40
2022-11-04T13:22:45.366Z,0.40
2022-11-04T14:42:51.730Z,4.22
2022-11-04T14:45:28.687Z,4.10
2022-11-04T14:48:13.282Z,0.75
2022-11-04T14:50:45.661Z,0.40
2022-11-04T14:53:29.751Z,0.85
2022-11-04T14:56:04.191Z,0.60
2022-11-04T14:58:31.361Z,2.75
2022-11-04T15:01:03.972Z,0.85
2022-11-04T15:04:10.894Z,4.45
2022-11-04T15:06:40.549Z,12.07
2022-11-04T15:09:28.032Z,5.38
2022-11-04T15:12:30.734Z,2.25
2022-11-04T15:14:59.826Z,1.13
2022-11-04T15:17:30.090Z,1.17
2022-11-04T15:19:59.749Z,4.07
2022-11-04T15:22:28.141Z,3.78
2022-11-04T15:25:05.939Z,7.15
2022-11-04T15:27:34.650Z,6.10
2022-11-04T15:30:04.265Z,2.60
2022-11-04T15:32:32.148Z,4.97
2022-11-04T15:34:59.639Z,11.23
2022-11-04T15:37:28.992Z,7.95
2022-11-04T15:39:58.384Z,17.48
2022-11-04T15:42:43.766Z,14.80
2022-11-04T15:45:22.976Z,14.35
2022-11-04T15:48:10.159Z,18.77
2022-11-04T15:50:38.636Z,14.82
2022-11-04T15:53:10.121Z,16.65
2022-11-04T15:55:38.398Z,17.35
2022-11-04T15:58:05.399Z,14.77
2022-11-04T16:00:34.146Z,7.47
2022-11-04T16:03:01.717Z,17.08
2022-11-04T16:05:35.596Z,10.63
2022-11-04T16:08:23.614Z,9.80
2022-11-04T16:11:07.456Z,11.38
2022-11-04T16:13:34.478Z,9.98
2022-11-04T16:16:09.103Z,5.93
2022-11-04T16:18:37.589Z,10.07
2022-11-04T16:21:13.005Z,13.80
2022-11-04T16:24:06.187Z,7.15
2022-11-04T16:26:43.331Z,9.32
2022-11-04T16:29:24.820Z,9.55
2022-11-04T16:32:18.224Z,9.43
2022-11-04T16:34:46.963Z,19.85
2022-11-04T16:37:14.075Z,15.13
2022-11-04T16:39:43.327Z,10.68
2022-11-04T16:42:14.745Z,6.90
2022-11-04T16:44:48.327Z,8.38
2022-11-04T16:47:15.477Z,7.50
2022-11-04T16:49:42.420Z,5.70
2022-11-04T16:52:18.371Z,10.48
2022-11-04T16:54:47.255Z,8.95
2022-11-04T16:57:15.244Z,12.85
2022-11-04T16:59:42.287Z,14.40
2022-11-04T17:02:18.448Z,12.15
2022-11-04T17:04:46.382Z,7.97
2022-11-04T17:07:13.606Z,12.40
2022-11-04T17:09:40.621Z,10.93
2022-11-04T17:12:07.833Z,14.00
2022-11-04T17:14:35.117Z,11.75
2022-11-04T17:17:03.807Z,11.05
2022-11-04T17:19:34.617Z,10.52
2022-11-04T17:22:05.230Z,8.93
2022-11-04T17:24:32.776Z,15.95
2022-11-04T17:27:00.396Z,10.52
2022-11-04T17:29:27.535Z,9.10
2022-11-04T17:31:55.722Z,6.18
2022-11-04T17:34:25.825Z,7.53
2022-11-04T17:36:54.016Z,10.90
2022-11-04T17:39:21.730Z,8.38
2022-11-04T17:42:07.439Z,7.05
2022-11-04T17:44:34.445Z,10.80
2022-11-04T17:47:01.615Z,7.60
2022-11-04T17:49:28.711Z,10.63
2022-11-04T17:51:58.534Z,9.65
2022-11-04T17:54:28.378Z,7.63
2022-11-04T17:56:55.972Z,6.43
2022-11-04T17:59:23.629Z,9.02
2022-11-04T18:01:51.220Z,10.63
2022-11-04T18:04:23.169Z,6.25
2022-11-04T18:06:51.319Z,8.98
2022-11-04T18:09:18.387Z,9.50
2022-11-04T18:12:04.554Z,6.68
2022-11-04T18:14:32.386Z,5.35
2022-11-04T18:16:59.680Z,6.43
2022-11-04T18:19:27.462Z,12.88
2022-11-04T18:21:54.562Z,3.95
2022-11-04T18:24:22.020Z,7.88
2022-11-04T18:26:49.319Z,8.50
2022-11-04T18:29:16.972Z,6.82
2022-11-04T18:31:49.029Z,4.65
2022-11-04T18:34:19.332Z,8.88
2022-11-04T18:36:48.125Z,4.50
2022-11-04T18:39:17.310Z,10.57
2022-11-04T18:41:45.661Z,10.07
2022-11-04T18:44:20.704Z,11.27
2022-11-04T18:46:49.018Z,5.50
2022-11-04T18:49:16.940Z,6.50
2022-11-04T18:51:44.680Z,7.18
2022-11-04T18:54:12.431Z,7.13
2022-11-04T18:56:39.694Z,7.28
2022-11-04T18:59:09.630Z,9.63
2022-11-04T19:01:37.112Z,11.70
2022-11-04T19:04:04.597Z,10.50
2022-11-04T19:06:34.840Z,9.40
2022-11-04T19:09:25.230Z,10.88
2022-11-04T19:12:14.799Z,6.45
2022-11-04T19:14:41.819Z,9.07
2022-11-04T19:17:08.787Z,13.75
2022-11-04T19:19:35.810Z,8.90
2022-11-04T19:22:02.926Z,5.85
2022-11-04T19:24:29.953Z,4.55
2022-11-04T19:26:56.976Z,4.93
2022-11-04T19:29:23.888Z,6.38
2022-11-04T19:31:51.072Z,4.05
2022-11-04T19:34:18.365Z,5.65
2022-11-04T19:36:45.347Z,9.57
2022-11-04T19:39:12.661Z,5.07
2022-11-04T19:41:58.417Z,8.68
2022-11-04T19:44:25.502Z,5.20
2022-11-04T19:46:52.642Z,6.65
2022-11-04T19:49:20.179Z,4.43
2022-11-04T19:51:47.352Z,4.22
2022-11-04T19:54:14.788Z,7.35
2022-11-04T19:56:42.595Z,6.25
2022-11-04T19:59:11.093Z,9.02
2022-11-04T20:01:38.502Z,7.15
2022-11-04T20:04:07.013Z,5.13
2022-11-04T20:06:35.288Z,4.82
2022-11-04T20:09:07.106Z,4.93
2022-11-04T20:11:55.580Z,6.00
2022-11-04T20:14:23.018Z,7.22
2022-11-04T20:16:50.104Z,5.53
2022-11-04T20:19:22.296Z,5.80
2022-11-04T20:21:50.060Z,6.22
2022-11-04T20:24:17.284Z,5.45
2022-11-04T20:26:44.761Z,4.38
2022-11-04T20:29:12.188Z,8.55
2022-11-04T20:31:39.718Z,5.13
2022-11-04T20:34:09.030Z,7.53
2022-11-04T20:36:36.818Z,5.13
2022-11-04T20:39:06.976Z,5.47
2022-11-04T20:41:34.268Z,8.90
2022-11-04T20:44:02.752Z,3.53
2022-11-04T20:46:31.727Z,3.55
2022-11-04T20:48:59.089Z,2.15
2022-11-04T20:51:31.396Z,2.83
2022-11-04T20:54:01.242Z,4.18
2022-11-04T20:56:33.993Z,7.53
2022-11-04T20:59:01.853Z,9.95
2022-11-04T21:01:32.023Z,7.43
2022-11-04T21:04:15.094Z,5.95
2022-11-04T21:06:42.728Z,4.88
2022-11-04T21:09:12.479Z,3.78
2022-11-04T21:11:39.914Z,3.67
2022-11-04T21:14:08.578Z,2.97
2022-11-04T21:16:36.241Z,2.13
2022-11-04T21:19:04.659Z,4.40
2022-11-04T21:21:33.312Z,7.25
2022-11-04T21:24:02.742Z,2.72
2022-11-04T21:26:34.027Z,3.15
2022-11-04T21:29:06.860Z,3.35
2022-11-04T21:31:35.987Z,3.55
2022-11-04T21:34:04.269Z,6.93
2022-11-04T21:36:31.855Z,4.18
2022-11-04T21:38:59.999Z,2.85
2022-11-04T21:41:29.605Z,4.78
2022-11-04T21:43:58.299Z,2.58
2022-11-04T21:46:26.368Z,4.10
2022-11-04T21:48:53.433Z,2.83
2022-11-04T21:51:23.179Z,4.57
2022-11-04T21:53:50.342Z,3.75
2022-11-04T21:56:25.256Z,2.00
2022-11-04T21:58:53.044Z,3.35
2022-11-04T22:01:24.232Z,2.08
2022-11-04T22:03:53.720Z,3.05
2022-11-04T22:06:20.917Z,2.65
2022-11-04T22:08:53.810Z,1.80
2022-11-04T22:11:28.379Z,1.87
2022-11-04T22:13:58.048Z,1.02
2022-11-04T22:16:28.245Z,2.28
2022-11-04T22:18:57.776Z,1.42
2022-11-04T22:21:26.253Z,3.72
2022-11-04T22:23:53.534Z,3.58
2022-11-04T22:26:24.288Z,3.05
2022-11-04T22:28:51.843Z,4.82
2022-11-04T22:31:22.881Z,2.13
2022-11-04T22:33:51.063Z,1.73
2022-11-04T22:36:18.798Z,1.95
2022-11-04T22:38:46.390Z,1.42
2022-11-04T22:41:19.396Z,2.65
2022-11-04T22:43:46.407Z,1.27
2022-11-04T22:46:20.330Z,4.95
2022-11-04T22:48:48.579Z,2.05
2022-11-04T22:51:15.547Z,2.55
2022-11-04T22:53:42.978Z,2.63
2022-11-04T22:56:12.489Z,2.97
2022-11-04T22:58:39.960Z,4.47
2022-11-04T23:01:10.189Z,4.68
2022-11-04T23:03:37.557Z,4.57
2022-11-04T23:06:06.047Z,1.95
2022-11-04T23:08:34.503Z,7.32
2022-11-04T23:11:26.746Z,2.22
2022-11-04T23:14:20.099Z,10.18
2022-11-04T23:17:09.553Z,4.28
2022-11-04T23:19:37.726Z,6.90
2022-11-04T23:22:23.316Z,3.03
2022-11-04T23:25:08.860Z,4.60
2022-11-04T23:28:06.246Z,7.30
2022-11-04T23:30:38.936Z,4.47
2022-11-04T23:33:08.466Z,6.50
2022-11-04T23:36:03.646Z,4.10
2022-11-04T23:38:31.195Z,7.25
2022-11-04T23:41:19.399Z,2.13
2022-11-04T23:43:46.684Z,3.97
2022-11-04T23:46:33.099Z,3.10
2022-11-04T23:49:26.443Z,1.05
2022-11-04T23:52:12.112Z,3.63
2022-11-04T23:54:57.567Z,2.13
2022-11-04T23:57:42.829Z,1.85
